This is the latest recevied weather packets stored in our database for station/object WB3IGR. If no packets are shown the sender has not sent any weather packets the latest 1 day(s).
| Time | Temp. | Humidity | Pressure | Rain* | Wind** | Luminosity | Snow |
|---|---|---|---|---|---|---|---|
| 1777983734 | 18.33° C | 65% | 1012.6 hPa | 0 mm | 1.79 m/s, 311° | 259 W/m² | - |
| 1777983431 | 18.33° C | 65% | 1012.5 hPa | 0 mm | 4.02 m/s, 255° | 192 W/m² | - |
| 1777983127 | 17.78° C | 66% | 1012.5 hPa | 0 mm | 1.34 m/s, 0° | 95 W/m² | - |
| 1777982824 | 18.33° C | 66% | 1012.5 hPa | 0 mm | 2.24 m/s, 298° | 240 W/m² | - |
| 1777982519 | 18.33° C | 67% | 1012.3 hPa | 0 mm | 0.45 m/s, 224° | 239 W/m² | - |
| 1777982213 | 18.33° C | 66% | 1012.5 hPa | 0 mm | 2.24 m/s, 237° | 225 W/m² | - |
| 1777981911 | 17.78° C | 68% | 1012.5 hPa | 0 mm | 1.79 m/s, 307° | 186 W/m² | - |
| 1777981608 | 17.78° C | 69% | 1012.4 hPa | 0 mm | 0.89 m/s, 224° | 160 W/m² | - |
| 1777981304 | 17.22° C | 69% | 1012.2 hPa | 0 mm | 0.89 m/s, 292° | 143 W/m² | - |
| 1777981001 | 16.67° C | 70% | 1012.1 hPa | 0 mm | 0.89 m/s, 247° | 124 W/m² | - |
| 1777980697 | 16.67° C | 71% | 1012.5 hPa | 0 mm | 0.89 m/s, 255° | 109 W/m² | - |
| 1777980393 | 16.67° C | 71% | 1012.4 hPa | 0 mm | 1.34 m/s, 297° | 96 W/m² | - |
| 1777980092 | 16.67° C | 71% | 1012.3 hPa | 0 mm | 1.34 m/s, 257° | 89 W/m² | - |
| 1777979786 | 16.67° C | 71% | 1012.4 hPa | 0 mm | 1.34 m/s, 317° | 53 W/m² | - |
| 1777979482 | 16.67° C | 70% | 1012.1 hPa | 0 mm | 2.24 m/s, 350° | 49 W/m² | - |
| 1777979178 | 16.11° C | 72% | 1012 hPa | 0 mm | 1.34 m/s, 318° | 47 W/m² | - |
| 1777978875 | 15° C | 77% | 1012.2 hPa | 0 mm | 0 m/s | 40 W/m² | - |
| 1777978572 | 14.44° C | 78% | 1012 hPa | 0 mm | 0 m/s | 39 W/m² | - |
| 1777978268 | 14.44° C | 78% | 1011.9 hPa | 0 mm | 0 m/s | 35 W/m² | - |
| 1777977965 | 13.89° C | 79% | 1011.8 hPa | 0 mm | 0 m/s | 36 W/m² | - |
| 1777977663 | 13.33° C | 81% | 1011.6 hPa | 0 mm | 0 m/s | 29 W/m² | - |
| 1777977359 | 12.78° C | 83% | 1011.8 hPa | 0 mm | 0 m/s | 26 W/m² | - |
| 1777977056 | 12.22° C | 84% | 1011.9 hPa | 0 mm | 0.45 m/s, 346° | 23 W/m² | - |
| 1777976754 | 12.22° C | 85% | 1011.7 hPa | 0 mm | 0.45 m/s, 197° | 19 W/m² | - |
| 1777976451 | 12.22° C | 84% | 1011.8 hPa | 0 mm | 0.45 m/s, 136° | 14 W/m² | - |
* Rain latest hour (hover to see other rain measurements)
** Current wind speed in m/s (hover to see current wind gust speed)